Time;durP1;ratioP1;P1;durP2;ratioP2;P2;SDS_P1;SDS_P2;PMS_P1;PMS_P2;Temp;Humidity;BMP_temperature;BMP_pressure;BME280_temperature;BME280_humidity;BME280_pressure;Samples;Min_cycle;Max_cycle;Signal;HPM_P1;HPM_P2
2022/11/14 00:06:26;;;;;;;;;;;3.60;99.90;;;;;;20850827;28;20358;-59
2022/11/14 00:16:46;;;;;;;;;;;3.70;99.90;;;;;;20815954;28;20436;-52
2022/11/14 00:27:08;;;;;;;;;;;3.70;99.90;;;;;;20815456;28;19920;-52
2022/11/14 00:37:28;;;;;;;;;;;3.70;99.90;;;;;;20839983;28;19920;-58
2022/11/14 00:47:49;;;;;;;;;;;3.70;99.90;;;;;;20834498;28;20344;-53
2022/11/14 00:58:10;;;;;;;;;;;3.70;99.90;;;;;;20812745;28;20290;-48
2022/11/14 01:08:30;;;;;;;;;;;3.70;99.90;;;;;;20811980;28;19913;-54
2022/11/14 01:18:51;;;;;;;;;;;3.70;99.90;;;;;;20825653;28;19908;-58
2022/11/14 01:29:12;;;;;;;;;;;3.70;99.90;;;;;;20892096;28;19913;-52
2022/11/14 01:39:33;;;;;;;;;;;3.70;99.90;;;;;;20891103;28;19916;-58
2022/11/14 01:49:56;;;;;;;;;;;3.70;99.90;;;;;;20889372;28;19971;-50
2022/11/14 02:00:17;;;;;;;;;;;3.60;99.90;;;;;;20890470;28;19908;-59
2022/11/14 02:10:38;;;;;;;;;;;3.70;99.90;;;;;;20807319;28;20428;-58
2022/11/14 02:20:58;;;;;;;;;;;3.60;99.90;;;;;;20806847;28;20125;-58
2022/11/14 02:31:19;;;;;;;;;;;3.50;99.90;;;;;;20805843;28;19978;-59
2022/11/14 02:41:40;;;;;;;;;;;3.50;99.90;;;;;;20816055;28;19913;-59
2022/11/14 02:52:01;;;;;;;;;;;3.50;99.90;;;;;;20886502;28;19967;-60
2022/11/14 03:02:21;;;;;;;;;;;3.50;99.90;;;;;;20896091;28;19912;-59
2022/11/14 03:12:42;;;;;;;;;;;3.50;99.90;;;;;;20913082;28;19912;-53
2022/11/14 03:23:03;;;;;;;;;;;3.60;99.90;;;;;;20865506;28;19913;-58
2022/11/14 03:33:24;;;;;;;;;;;3.60;99.90;;;;;;20830395;28;19913;-60
2022/11/14 03:43:45;;;;;;;;;;;3.70;99.90;;;;;;20831000;28;19935;-58
2022/11/14 03:54:05;;;;;;;;;;;3.70;99.90;;;;;;20829869;28;19921;-52
2022/11/14 04:04:26;;;;;;;;;;;3.70;99.90;;;;;;20862103;28;20286;-51
2022/11/14 04:14:46;;;;;;;;;;;3.80;99.90;;;;;;20905142;28;20377;-52
2022/11/14 04:25:08;;;;;;;;;;;3.80;99.90;;;;;;20897481;28;19908;-56
2022/11/14 04:35:29;;;;;;;;;;;3.80;99.90;;;;;;20896380;28;19917;-58
2022/11/14 04:45:49;;;;;;;;;;;4.00;99.90;;;;;;20851257;28;20278;-49
2022/11/14 04:56:10;;;;;;;;;;;3.90;99.90;;;;;;20813126;28;19951;-52
2022/11/14 05:06:31;;;;;;;;;;;4.00;99.90;;;;;;20812295;28;19917;-58
2022/11/14 05:16:51;;;;;;;;;;;4.00;99.90;;;;;;20811774;28;20333;-59
2022/11/14 05:27:12;;;;;;;;;;;4.00;99.90;;;;;;20876010;28;19908;-59
2022/11/14 05:37:33;;;;;;;;;;;4.10;99.90;;;;;;20891674;28;19939;-51
2022/11/14 05:47:53;;;;;;;;;;;4.10;99.90;;;;;;20891686;28;19916;-59
2022/11/14 05:58:15;;;;;;;;;;;4.20;99.90;;;;;;20889984;28;19913;-59
2022/11/14 06:08:36;;;;;;;;;;;4.30;99.90;;;;;;20821964;28;19913;-58
2022/11/14 06:18:57;;;;;;;;;;;4.20;99.90;;;;;;20806992;28;19936;-59
2022/11/14 06:29:18;;;;;;;;;;;4.30;99.90;;;;;;20805951;28;19913;-59
2022/11/14 06:39:38;;;;;;;;;;;4.30;99.90;;;;;;20804706;28;19917;-59
2022/11/14 06:49:59;;;;;;;;;;;4.40;99.90;;;;;;20883618;28;19921;-59
2022/11/14 07:00:21;;;;;;;;;;;4.40;99.90;;;;;;20884969;28;19912;-51
2022/11/14 07:10:42;;;;;;;;;;;4.50;99.90;;;;;;20827155;28;19913;-59
2022/11/14 07:21:04;;;;;;;;;;;4.50;99.90;;;;;;20835941;28;19908;-54
2022/11/14 07:31:25;;;;;;;;;;;4.60;99.90;;;;;;20886877;28;20328;-53
2022/11/14 07:41:46;;;;;;;;;;;4.50;99.90;;;;;;20884673;28;20560;-57
2022/11/14 07:52:06;;;;;;;;;;;4.50;99.90;;;;;;20879644;28;19920;-59
2022/11/14 08:02:29;;;;;;;;;;;4.70;99.90;;;;;;20882506;28;19979;-58
2022/11/14 08:12:57;;;;;;;;;;;4.70;99.90;;;;;;20816709;28;20380;-58
2022/11/14 08:23:19;;;;;;;;;;;4.80;99.90;;;;;;20815836;28;19935;-58
2022/11/14 08:33:40;;;;;;;;;;;5.00;99.90;;;;;;20801276;28;19990;-59
2022/11/14 08:44:00;;;;;;;;;;;5.20;99.90;;;;;;20864382;28;20374;-59
2022/11/14 08:54:21;;;;;;;;;;;5.30;99.90;;;;;;20813184;28;19944;-59
2022/11/14 09:04:44;;;;;;;;;;;5.30;99.90;;;;;;20812376;28;20024;-59
2022/11/14 09:15:06;;;;;;;;;;;5.40;99.90;;;;;;20811589;28;19917;-60
2022/11/14 09:25:28;;;;;;;;;;;5.70;99.90;;;;;;20879845;28;19912;-60
2022/11/14 09:35:55;;;;;;;;;;;6.10;99.90;;;;;;20891442;28;20294;-60
2022/11/14 09:46:27;;;;;;;;;;;6.30;99.90;;;;;;20892656;28;20313;-60
2022/11/14 09:56:47;;;;;;;;;;;7.00;99.90;;;;;;20890165;28;19913;-59
2022/11/14 10:07:24;;;;;;;;;;;8.40;99.90;;;;;;20834502;28;19909;-60
2022/11/14 10:17:45;;;;;;;;;;;8.60;99.90;;;;;;20806386;28;19979;-59
2022/11/14 10:28:24;;;;;;;;;;;8.80;99.90;;;;;;20878671;28;19917;-59
2022/11/14 10:39:00;;;;;;;;;;;9.30;99.90;;;;;;20886738;28;19917;-58
2022/11/14 10:49:23;;;;;;;;;;;10.10;99.90;;;;;;20833304;28;19959;-59
2022/11/14 10:59:46;;;;;;;;;;;9.80;99.90;;;;;;20873216;28;19912;-59
2022/11/14 11:21:03;;;;;;;;;;;8.40;99.90;;;;;;20855472;28;19909;-59
2022/11/14 11:31:23;;;;;;;;;;;8.30;99.90;;;;;;20819837;28;19917;-59
2022/11/14 11:41:45;;;;;;;;;;;8.70;99.90;;;;;;20818744;28;20311;-60
2022/11/14 11:52:18;;;;;;;;;;;9.00;99.90;;;;;;20841511;28;19913;-59
2022/11/14 12:02:40;;;;;;;;;;;9.70;99.90;;;;;;20881442;28;20309;-59
2022/11/14 12:13:20;;;;;;;;;;;10.40;99.90;;;;;;20816467;28;19913;-59
2022/11/14 12:23:43;;;;;;;;;;;11.30;99.90;;;;;;20815591;28;19909;-60
2022/11/14 12:34:14;;;;;;;;;;;12.10;99.90;;;;;;20813962;28;19971;-60
2022/11/14 12:44:37;;;;;;;;;;;10.70;99.90;;;;;;20849103;28;19978;-59
2022/11/14 12:54:58;;;;;;;;;;;8.90;99.90;;;;;;20895229;28;19992;-60
2022/11/14 13:05:38;;;;;;;;;;;9.00;99.90;;;;;;20894527;28;20389;-60
2022/11/14 13:26:43;;;;;;;;;;;9.40;99.90;;;;;;20814122;28;19908;-60
2022/11/14 13:37:19;;;;;;;;;;;9.30;99.90;;;;;;20809213;28;20302;-57
2022/11/14 13:47:50;;;;;;;;;;;8.30;99.90;;;;;;20814610;28;19925;-59
2022/11/14 13:58:20;;;;;;;;;;;7.80;99.90;;;;;;20890351;28;19913;-59
2022/11/14 14:08:40;;;;;;;;;;;7.80;99.90;;;;;;20821439;28;19913;-60
2022/11/14 14:19:16;;;;;;;;;;;7.60;99.90;;;;;;20807058;28;19920;-59
2022/11/14 14:29:42;;;;;;;;;;;7.20;99.90;;;;;;20810044;28;19960;-59
2022/11/14 14:40:05;;;;;;;;;;;6.40;99.90;;;;;;20854010;28;19917;-59
2022/11/14 14:50:39;;;;;;;;;;;5.80;99.90;;;;;;20859211;28;19943;-59
2022/11/14 15:01:02;;;;;;;;;;;5.30;99.90;;;;;;20804229;28;19940;-59
2022/11/14 15:11:24;;;;;;;;;;;4.90;99.90;;;;;;20803819;28;19962;-59
2022/11/14 15:21:45;;;;;;;;;;;4.60;99.90;;;;;;20841272;28;19951;-58
2022/11/14 15:32:06;;;;;;;;;;;4.20;99.90;;;;;;20885475;28;20297;-58
2022/11/14 15:42:30;;;;;;;;;;;3.80;99.90;;;;;;20817396;28;19979;-59
2022/11/14 15:53:05;;;;;;;;;;;3.40;99.90;;;;;;20831762;28;19912;-60
2022/11/14 16:03:29;;;;;;;;;;;3.00;99.90;;;;;;20845715;28;19912;-59
2022/11/14 16:13:50;;;;;;;;;;;2.80;99.90;;;;;;20814032;28;19967;-59
2022/11/14 16:24:13;;;;;;;;;;;2.60;99.90;;;;;;20854593;28;20231;-58
2022/11/14 16:34:34;;;;;;;;;;;2.40;99.90;;;;;;20814830;28;20275;-59
2022/11/14 16:45:01;;;;;;;;;;;2.30;99.90;;;;;;20814251;28;20428;-59
2022/11/14 16:55:22;;;;;;;;;;;2.50;99.90;;;;;;20813349;28;20443;-59
2022/11/14 17:05:47;;;;;;;;;;;2.40;99.90;;;;;;20812908;28;19909;-59
2022/11/14 17:16:08;;;;;;;;;;;2.30;99.90;;;;;;20853348;28;19953;-59
2022/11/14 17:26:30;;;;;;;;;;;2.20;99.90;;;;;;20892584;28;19912;-58
2022/11/14 17:36:51;;;;;;;;;;;2.10;99.90;;;;;;20892102;28;19970;-58
2022/11/14 17:47:11;;;;;;;;;;;2.20;99.90;;;;;;20877732;28;19990;-59
2022/11/14 17:57:32;;;;;;;;;;;2.10;99.90;;;;;;20876791;28;19916;-59
2022/11/14 18:07:53;;;;;;;;;;;2.10;99.90;;;;;;20880926;28;20191;-59
2022/11/14 18:18:13;;;;;;;;;;;2.10;99.90;;;;;;20883740;28;19917;-59
2022/11/14 18:28:34;;;;;;;;;;;2.00;99.90;;;;;;20876438;28;19908;-59
2022/11/14 18:38:56;;;;;;;;;;;1.80;99.90;;;;;;20877256;28;19920;-58
2022/11/14 18:49:17;;;;;;;;;;;1.80;99.90;;;;;;20865383;28;19935;-58
2022/11/14 18:59:39;;;;;;;;;;;1.90;99.90;;;;;;20877253;28;19959;-59
2022/11/14 19:09:59;;;;;;;;;;;1.90;99.90;;;;;;20876042;28;19935;-59
2022/11/14 19:20:20;;;;;;;;;;;1.90;99.90;;;;;;20877175;28;19917;-58
2022/11/14 19:30:40;;;;;;;;;;;2.00;99.90;;;;;;20874053;28;19921;-59
2022/11/14 19:41:08;;;;;;;;;;;1.80;99.90;;;;;;20878173;28;19917;-58
2022/11/14 19:51:30;;;;;;;;;;;1.80;99.90;;;;;;20908662;28;19912;-59
2022/11/14 20:01:53;;;;;;;;;;;1.90;99.90;;;;;;20890433;28;20324;-59
2022/11/14 20:12:15;;;;;;;;;;;1.90;99.90;;;;;;20885809;28;19939;-58
2022/11/14 20:22:36;;;;;;;;;;;1.80;99.90;;;;;;20886453;28;20396;-60
2022/11/14 20:32:57;;;;;;;;;;;1.80;99.90;;;;;;20884308;28;20254;-57
2022/11/14 20:43:18;;;;;;;;;;;1.70;99.90;;;;;;20880038;28;19966;-59
2022/11/14 20:53:38;;;;;;;;;;;1.70;99.90;;;;;;20885160;28;19913;-59
2022/11/14 21:03:59;;;;;;;;;;;1.70;99.90;;;;;;20889491;28;19908;-58
2022/11/14 21:14:20;;;;;;;;;;;2.10;99.90;;;;;;20876820;28;20369;-58
2022/11/14 21:24:41;;;;;;;;;;;2.10;99.90;;;;;;20876860;28;19935;-59
2022/11/14 21:35:02;;;;;;;;;;;2.00;99.90;;;;;;20878644;28;19917;-59
2022/11/14 21:45:22;;;;;;;;;;;2.00;99.90;;;;;;20886403;28;20397;-60
2022/11/14 21:55:44;;;;;;;;;;;2.30;99.90;;;;;;20881085;28;19917;-59
2022/11/14 22:06:05;;;;;;;;;;;2.40;99.90;;;;;;20881424;28;20030;-59
2022/11/14 22:16:25;;;;;;;;;;;2.00;99.90;;;;;;20879924;28;19916;-58
2022/11/14 22:26:46;;;;;;;;;;;2.00;99.90;;;;;;20874690;28;19917;-59
2022/11/14 22:37:07;;;;;;;;;;;2.00;99.90;;;;;;20878353;28;19921;-59
2022/11/14 22:47:29;;;;;;;;;;;1.80;99.90;;;;;;20879396;28;20483;-60
2022/11/14 22:57:49;;;;;;;;;;;1.70;99.90;;;;;;20872617;28;19912;-59
2022/11/14 23:08:10;;;;;;;;;;;1.80;99.90;;;;;;20872291;28;20366;-59
2022/11/14 23:18:31;;;;;;;;;;;1.80;99.90;;;;;;20881055;28;19921;-58
2022/11/14 23:28:53;;;;;;;;;;;1.70;99.90;;;;;;20884453;28;19962;-58
2022/11/14 23:39:14;;;;;;;;;;;1.70;99.90;;;;;;20896239;28;19917;-58
2022/11/14 23:49:35;;;;;;;;;;;1.80;99.90;;;;;;20891176;28;19940;-59
2022/11/14 23:59:56;;;;;;;;;;;1.80;99.90;;;;;;20887506;28;19920;-58
